sensor_id;sensor_type;location;lat;lon;timestamp;pressure;altitude;pressure_sealevel;temperature;humidity
16690;BME280;8458;52.220;9.884;2023-04-01T00:01:43;98699.66;;;10.67;100.00
16690;BME280;8458;52.220;9.884;2023-04-01T00:04:10;98703.16;;;10.73;100.00
16690;BME280;8458;52.220;9.884;2023-04-01T00:06:36;98697.78;;;10.76;100.00
16690;BME280;8458;52.220;9.884;2023-04-01T00:09:03;98701.41;;;10.77;100.00
16690;BME280;8458;52.220;9.884;2023-04-01T00:11:29;98706.31;;;10.80;100.00
16690;BME280;8458;52.220;9.884;2023-04-01T00:13:56;98701.91;;;10.79;99.88
16690;BME280;8458;52.220;9.884;2023-04-01T00:16:23;98714.63;;;10.80;98.85
16690;BME280;8458;52.220;9.884;2023-04-01T00:18:50;98707.81;;;10.86;98.42
16690;BME280;8458;52.220;9.884;2023-04-01T00:21:19;98709.44;;;10.87;97.99
16690;BME280;8458;52.220;9.884;2023-04-01T00:23:46;98707.19;;;10.89;96.94
16690;BME280;8458;52.220;9.884;2023-04-01T00:26:13;98700.63;;;10.85;96.78
16690;BME280;8458;52.220;9.884;2023-04-01T00:28:44;98706.56;;;10.92;96.27
16690;BME280;8458;52.220;9.884;2023-04-01T00:31:11;98706.19;;;10.85;96.93
16690;BME280;8458;52.220;9.884;2023-04-01T00:33:40;98702.91;;;10.83;96.73
16690;BME280;8458;52.220;9.884;2023-04-01T00:36:08;98703.53;;;10.80;96.46
16690;BME280;8458;52.220;9.884;2023-04-01T00:38:35;98700.47;;;10.82;96.55
16690;BME280;8458;52.220;9.884;2023-04-01T00:41:02;98705.78;;;10.78;97.11
16690;BME280;8458;52.220;9.884;2023-04-01T00:43:29;98704.34;;;10.81;96.46
16690;BME280;8458;52.220;9.884;2023-04-01T00:45:56;98706.19;;;10.85;96.21
16690;BME280;8458;52.220;9.884;2023-04-01T00:48:25;98706.00;;;10.82;96.01
16690;BME280;8458;52.220;9.884;2023-04-01T00:50:59;98707.44;;;10.79;95.54
16690;BME280;8458;52.220;9.884;2023-04-01T00:53:28;98707.44;;;10.79;95.24
16690;BME280;8458;52.220;9.884;2023-04-01T00:55:57;98715.13;;;10.82;94.81
16690;BME280;8458;52.220;9.884;2023-04-01T00:58:28;98701.91;;;10.79;94.54
16690;BME280;8458;52.220;9.884;2023-04-01T01:00:56;98709.09;;;10.80;94.64
16690;BME280;8458;52.220;9.884;2023-04-01T01:03:23;98713.78;;;10.80;94.85
16690;BME280;8458;52.220;9.884;2023-04-01T01:06:03;98713.59;;;10.76;94.56
16690;BME280;8458;52.220;9.884;2023-04-01T01:08:52;98711.16;;;10.74;94.78
16690;BME280;8458;52.220;9.884;2023-04-01T01:11:29;98714.72;;;10.75;95.29
16690;BME280;8458;52.220;9.884;2023-04-01T01:14:01;98717.19;;;10.76;95.95
16690;BME280;8458;52.220;9.884;2023-04-01T01:16:34;98711.28;;;10.69;96.51
16690;BME280;8458;52.220;9.884;2023-04-01T01:19:09;98714.56;;;10.71;96.69
16690;BME280;8458;52.220;9.884;2023-04-01T01:21:51;98711.47;;;10.73;96.55
16690;BME280;8458;52.220;9.884;2023-04-01T01:24:42;98714.56;;;10.71;96.78
16690;BME280;8458;52.220;9.884;2023-04-01T01:27:16;98714.88;;;10.70;96.42
16690;BME280;8458;52.220;9.884;2023-04-01T01:30:08;98708.81;;;10.68;96.41
16690;BME280;8458;52.220;9.884;2023-04-01T01:32:49;98706.47;;;10.61;97.97
16690;BME280;8458;52.220;9.884;2023-04-01T01:35:22;98703.50;;;10.57;99.80
16690;BME280;8458;52.220;9.884;2023-04-01T01:37:53;98700.75;;;10.57;100.00
16690;BME280;8458;52.220;9.884;2023-04-01T01:40:22;98701.75;;;10.62;100.00
16690;BME280;8458;52.220;9.884;2023-04-01T01:42:55;98703.38;;;10.63;100.00
16690;BME280;8458;52.220;9.884;2023-04-01T01:45:24;98704.22;;;10.63;100.00
16690;BME280;8458;52.220;9.884;2023-04-01T01:47:51;98701.75;;;10.62;100.00
16690;BME280;8458;52.220;9.884;2023-04-01T01:50:20;98707.31;;;10.62;100.00
16690;BME280;8458;52.220;9.884;2023-04-01T01:52:47;98699.63;;;10.58;100.00
16690;BME280;8458;52.220;9.884;2023-04-01T01:55:26;98707.94;;;10.58;100.00
16690;BME280;8458;52.220;9.884;2023-04-01T01:57:53;98708.06;;;10.53;100.00
16690;BME280;8458;52.220;9.884;2023-04-01T02:00:21;98705.78;;;10.55;100.00
16690;BME280;8458;52.220;9.884;2023-04-01T02:02:49;98706.28;;;10.57;100.00
16690;BME280;8458;52.220;9.884;2023-04-01T02:05:18;98707.22;;;10.53;100.00
16690;BME280;8458;52.220;9.884;2023-04-01T02:07:51;98703.75;;;10.47;100.00
16690;BME280;8458;52.220;9.884;2023-04-01T02:10:21;98704.88;;;10.46;100.00
16690;BME280;8458;52.220;9.884;2023-04-01T02:12:50;98707.53;;;10.51;100.00
16690;BME280;8458;52.220;9.884;2023-04-01T02:15:20;98702.50;;;10.53;100.00
16690;BME280;8458;52.220;9.884;2023-04-01T02:17:49;98703.63;;;10.52;100.00
16690;BME280;8458;52.220;9.884;2023-04-01T02:20:18;98709.38;;;10.56;100.00
16690;BME280;8458;52.220;9.884;2023-04-01T02:22:49;98705.91;;;10.50;100.00
16690;BME280;8458;52.220;9.884;2023-04-01T02:25:18;98706.09;;;10.54;99.61
16690;BME280;8458;52.220;9.884;2023-04-01T02:27:48;98716.78;;;10.47;99.75
16690;BME280;8458;52.220;9.884;2023-04-01T02:30:15;98706.91;;;10.54;98.97
16690;BME280;8458;52.220;9.884;2023-04-01T02:32:43;98710.81;;;10.53;99.08
16690;BME280;8458;52.220;9.884;2023-04-01T02:35:12;98714.72;;;10.52;99.87
16690;BME280;8458;52.220;9.884;2023-04-01T02:37:41;98707.72;;;10.55;100.00
16690;BME280;8458;52.220;9.884;2023-04-01T02:40:12;98706.91;;;10.54;100.00
16690;BME280;8458;52.220;9.884;2023-04-01T02:42:39;98712.25;;;10.51;100.00
16690;BME280;8458;52.220;9.884;2023-04-01T02:45:07;98701.06;;;10.56;100.00
16690;BME280;8458;52.220;9.884;2023-04-01T02:47:33;98708.56;;;10.55;100.00
16690;BME280;8458;52.220;9.884;2023-04-01T02:50:00;98707.53;;;10.51;100.00
16690;BME280;8458;52.220;9.884;2023-04-01T02:52:28;98706.41;;;10.52;100.00
16690;BME280;8458;52.220;9.884;2023-04-01T02:54:55;98712.88;;;10.48;100.00
16690;BME280;8458;52.220;9.884;2023-04-01T02:57:23;98713.91;;;10.52;100.00
16690;BME280;8458;52.220;9.884;2023-04-01T02:59:50;98724.78;;;10.48;100.00
16690;BME280;8458;52.220;9.884;2023-04-01T03:02:17;98722.53;;;10.50;100.00
16690;BME280;8458;52.220;9.884;2023-04-01T03:04:43;98723.66;;;10.49;100.00
16690;BME280;8458;52.220;9.884;2023-04-01T03:07:11;98717.00;;;10.50;100.00
16690;BME280;8458;52.220;9.884;2023-04-01T03:09:38;98715.22;;;10.54;100.00
16690;BME280;8458;52.220;9.884;2023-04-01T03:12:05;98724.56;;;10.58;100.00
16690;BME280;8458;52.220;9.884;2023-04-01T03:14:33;98726.69;;;10.62;100.00
16690;BME280;8458;52.220;9.884;2023-04-01T03:16:59;98721.66;;;10.64;100.00
16690;BME280;8458;52.220;9.884;2023-04-01T03:19:26;98719.69;;;10.64;100.00
16690;BME280;8458;52.220;9.884;2023-04-01T03:21:52;98714.88;;;10.70;100.00
16690;BME280;8458;52.220;9.884;2023-04-01T03:24:19;98722.69;;;10.68;99.53
16690;BME280;8458;52.220;9.884;2023-04-01T03:26:46;98722.78;;;10.63;99.12
16690;BME280;8458;52.220;9.884;2023-04-01T03:29:12;98726.69;;;10.62;99.29
16690;BME280;8458;52.220;9.884;2023-04-01T03:31:42;98725.81;;;10.52;99.07
16690;BME280;8458;52.220;9.884;2023-04-01T03:34:08;98724.78;;;10.48;99.16
16690;BME280;8458;52.220;9.884;2023-04-01T03:36:35;98720.25;;;10.52;98.57
16690;BME280;8458;52.220;9.884;2023-04-01T03:39:01;98721.91;;;10.53;98.88
16690;BME280;8458;52.220;9.884;2023-04-01T03:41:29;98730.09;;;10.58;98.80
16690;BME280;8458;52.220;9.884;2023-04-01T03:43:55;98736.88;;;10.52;98.86
16690;BME280;8458;52.220;9.884;2023-04-01T03:46:22;98723.72;;;10.58;98.16
16690;BME280;8458;52.220;9.884;2023-04-01T03:48:50;98739.84;;;10.56;98.01
16690;BME280;8458;52.220;9.884;2023-04-01T03:51:16;98735.25;;;10.51;98.13
16690;BME280;8458;52.220;9.884;2023-04-01T03:53:43;98730.53;;;10.52;98.01
16690;BME280;8458;52.220;9.884;2023-04-01T03:56:10;98737.09;;;10.42;98.63
16690;BME280;8458;52.220;9.884;2023-04-01T03:58:37;98734.66;;;10.40;98.06
16690;BME280;8458;52.220;9.884;2023-04-01T04:01:13;98733.53;;;10.42;98.14
16690;BME280;8458;52.220;9.884;2023-04-01T04:03:39;98738.63;;;10.48;97.75
16690;BME280;8458;52.220;9.884;2023-04-01T04:06:10;98738.31;;;10.50;96.82
16690;BME280;8458;52.220;9.884;2023-04-01T04:08:37;98738.31;;;10.50;97.15
16690;BME280;8458;52.220;9.884;2023-04-01T04:11:04;98741.94;;;10.50;97.84
16690;BME280;8458;52.220;9.884;2023-04-01T04:13:30;98740.16;;;10.54;97.79
16690;BME280;8458;52.220;9.884;2023-04-01T04:15:57;98743.25;;;10.53;97.77
16690;BME280;8458;52.220;9.884;2023-04-01T04:18:24;98743.56;;;10.51;97.98
16690;BME280;8458;52.220;9.884;2023-04-01T04:20:50;98745.63;;;10.46;98.24
16690;BME280;8458;52.220;9.884;2023-04-01T04:23:18;98747.47;;;10.50;98.36
16690;BME280;8458;52.220;9.884;2023-04-01T04:25:53;98744.09;;;10.53;98.41
16690;BME280;8458;52.220;9.884;2023-04-01T04:28:19;98745.69;;;10.54;98.44
16690;BME280;8458;52.220;9.884;2023-04-01T04:30:46;98743.69;;;10.46;98.72
16690;BME280;8458;52.220;9.884;2023-04-01T04:33:12;98748.00;;;10.38;99.44
16690;BME280;8458;52.220;9.884;2023-04-01T04:35:39;98750.47;;;10.40;100.00
16690;BME280;8458;52.220;9.884;2023-04-01T04:38:05;98747.19;;;10.38;100.00
16690;BME280;8458;52.220;9.884;2023-04-01T04:40:35;98755.06;;;10.31;100.00
16690;BME280;8458;52.220;9.884;2023-04-01T04:43:02;98757.25;;;10.34;100.00
16690;BME280;8458;52.220;9.884;2023-04-01T04:45:28;98752.72;;;10.38;100.00
16690;BME280;8458;52.220;9.884;2023-04-01T04:47:55;98760.50;;;10.36;100.00
16690;BME280;8458;52.220;9.884;2023-04-01T04:50:22;98755.38;;;10.29;100.00
16690;BME280;8458;52.220;9.884;2023-04-01T04:52:49;98761.34;;;10.36;100.00
16690;BME280;8458;52.220;9.884;2023-04-01T04:55:15;98757.25;;;10.34;100.00
16690;BME280;8458;52.220;9.884;2023-04-01T04:57:43;98755.59;;;10.33;100.00
16690;BME280;8458;52.220;9.884;2023-04-01T05:00:10;98755.78;;;10.22;100.00
16690;BME280;8458;52.220;9.884;2023-04-01T05:02:37;98762.56;;;10.30;100.00
16690;BME280;8458;52.220;9.884;2023-04-01T05:05:04;98761.84;;;10.25;100.00
16690;BME280;8458;52.220;9.884;2023-04-01T05:07:31;98764.78;;;10.28;100.00
16690;BME280;8458;52.220;9.884;2023-04-01T05:09:58;98764.00;;;10.28;100.00
16690;BME280;8458;52.220;9.884;2023-04-01T05:12:25;98773.25;;;10.37;100.00
16690;BME280;8458;52.220;9.884;2023-04-01T05:14:53;98769.84;;;10.40;100.00
16690;BME280;8458;52.220;9.884;2023-04-01T05:17:20;98764.81;;;10.42;100.00
16690;BME280;8458;52.220;9.884;2023-04-01T05:19:46;98765.97;;;10.41;100.00
16690;BME280;8458;52.220;9.884;2023-04-01T05:22:13;98766.47;;;10.43;100.00
16690;BME280;8458;52.220;9.884;2023-04-01T05:24:39;98767.81;;;10.46;100.00
16690;BME280;8458;52.220;9.884;2023-04-01T05:27:06;98769.72;;;10.45;100.00
16690;BME280;8458;52.220;9.884;2023-04-01T05:29:32;98771.19;;;10.43;100.00
16690;BME280;8458;52.220;9.884;2023-04-01T05:32:01;98767.69;;;10.37;100.00
16690;BME280;8458;52.220;9.884;2023-04-01T05:34:28;98769.22;;;10.43;100.00
16690;BME280;8458;52.220;9.884;2023-04-01T05:36:54;98777.03;;;10.41;100.00
16690;BME280;8458;52.220;9.884;2023-04-01T05:39:21;98770.03;;;10.44;100.00
16690;BME280;8458;52.220;9.884;2023-04-01T05:41:48;98780.81;;;10.45;100.00
16690;BME280;8458;52.220;9.884;2023-04-01T05:44:15;98781.03;;;10.49;100.00
16690;BME280;8458;52.220;9.884;2023-04-01T05:46:42;98783.28;;;10.47;100.00
16690;BME280;8458;52.220;9.884;2023-04-01T05:49:10;98779.38;;;10.48;100.00
16690;BME280;8458;52.220;9.884;2023-04-01T05:51:36;98780.41;;;10.52;100.00
16690;BME280;8458;52.220;9.884;2023-04-01T05:54:04;98782.22;;;10.56;100.00
16690;BME280;8458;52.220;9.884;2023-04-01T05:56:30;98786.84;;;10.61;100.00
16690;BME280;8458;52.220;9.884;2023-04-01T05:58:56;98793.84;;;10.58;100.00
16690;BME280;8458;52.220;9.884;2023-04-01T06:01:23;98785.72;;;10.48;100.00
16690;BME280;8458;52.220;9.884;2023-04-01T06:03:50;98787.75;;;10.56;100.00
16690;BME280;8458;52.220;9.884;2023-04-01T06:06:23;98787.66;;;10.62;100.00
16690;BME280;8458;52.220;9.884;2023-04-01T06:08:51;98790.53;;;10.56;100.00
16690;BME280;8458;52.220;9.884;2023-04-01T06:11:28;98792.50;;;10.56;100.00
16690;BME280;8458;52.220;9.884;2023-04-01T06:14:10;98792.69;;;10.59;100.00
16690;BME280;8458;52.220;9.884;2023-04-01T06:16:47;98795.38;;;10.51;100.00
16690;BME280;8458;52.220;9.884;2023-04-01T06:19:24;98791.06;;;10.58;100.00
16690;BME280;8458;52.220;9.884;2023-04-01T06:22:17;98798.97;;;10.51;100.00
16690;BME280;8458;52.220;9.884;2023-04-01T06:25:02;98803.69;;;10.51;100.00
16690;BME280;8458;52.220;9.884;2023-04-01T06:27:44;98809.44;;;10.54;100.00
16690;BME280;8458;52.220;9.884;2023-04-01T06:30:28;98804.81;;;10.50;100.00
16690;BME280;8458;52.220;9.884;2023-04-01T06:33:15;98805.75;;;10.45;100.00
16690;BME280;8458;52.220;9.884;2023-04-01T06:39:13;98809.44;;;10.54;100.00
16690;BME280;8458;52.220;9.884;2023-04-01T06:41:57;98811.69;;;10.52;100.00
16690;BME280;8458;52.220;9.884;2023-04-01T06:44:36;98812.63;;;10.62;100.00
16690;BME280;8458;52.220;9.884;2023-04-01T06:47:25;98812.41;;;10.58;100.00
16690;BME280;8458;52.220;9.884;2023-04-01T06:49:59;98816.50;;;10.61;100.00
16690;BME280;8458;52.220;9.884;2023-04-01T06:52:32;98823.88;;;10.65;100.00
16690;BME280;8458;52.220;9.884;2023-04-01T06:55:17;98829.63;;;10.69;100.00
16690;BME280;8458;52.220;9.884;2023-04-01T06:57:48;98823.47;;;10.72;100.00
16690;BME280;8458;52.220;9.884;2023-04-01T07:00:20;98821.00;;;10.70;100.00
16690;BME280;8458;52.220;9.884;2023-04-01T07:02:54;98832.31;;;10.74;100.00
16690;BME280;8458;52.220;9.884;2023-04-01T07:05:24;98828.00;;;10.68;100.00
16690;BME280;8458;52.220;9.884;2023-04-01T07:07:57;98834.84;;;10.70;100.00
16690;BME280;8458;52.220;9.884;2023-04-01T07:10:34;98828.69;;;10.73;100.00
16690;BME280;8458;52.220;9.884;2023-04-01T07:13:04;98832.31;;;10.74;100.00
16690;BME280;8458;52.220;9.884;2023-04-01T07:15:36;98836.06;;;10.78;100.00
16690;BME280;8458;52.220;9.884;2023-04-01T07:18:09;98838.22;;;10.81;100.00
16690;BME280;8458;52.220;9.884;2023-04-01T07:20:38;98833.91;;;10.89;100.00
16690;BME280;8458;52.220;9.884;2023-04-01T07:23:08;98830.13;;;10.85;100.00
16690;BME280;8458;52.220;9.884;2023-04-01T07:25:41;98842.44;;;10.92;100.00
16690;BME280;8458;52.220;9.884;2023-04-01T07:28:12;98848.03;;;11.01;100.00
16690;BME280;8458;52.220;9.884;2023-04-01T07:30:48;98845.78;;;11.03;100.00
16690;BME280;8458;52.220;9.884;2023-04-01T07:33:21;98852.78;;;11.01;100.00
16690;BME280;8458;52.220;9.884;2023-04-01T07:35:54;98844.94;;;11.03;100.00
16690;BME280;8458;52.220;9.884;2023-04-01T07:38:28;98849.38;;;11.04;100.00
16690;BME280;8458;52.220;9.884;2023-04-01T07:41:05;98858.50;;;11.04;100.00
16690;BME280;8458;52.220;9.884;2023-04-01T07:43:46;98859.97;;;11.02;100.00
16690;BME280;8458;52.220;9.884;2023-04-01T07:46:23;98863.25;;;11.04;100.00
16690;BME280;8458;52.220;9.884;2023-04-01T07:48:58;98866.41;;;11.11;100.00
16690;BME280;8458;52.220;9.884;2023-04-01T07:51:30;98870.81;;;11.12;100.00
16690;BME280;8458;52.220;9.884;2023-04-01T07:54:04;98873.59;;;11.12;100.00
16690;BME280;8458;52.220;9.884;2023-04-01T07:56:40;98872.47;;;11.13;100.00
16690;BME280;8458;52.220;9.884;2023-04-01T07:59:14;98873.91;;;11.10;100.00
16690;BME280;8458;52.220;9.884;2023-04-01T08:01:48;98871.66;;;11.12;100.00
16690;BME280;8458;52.220;9.884;2023-04-01T08:04:24;98877.28;;;11.07;100.00
16690;BME280;8458;52.220;9.884;2023-04-01T08:06:58;98883.16;;;11.06;100.00
16690;BME280;8458;52.220;9.884;2023-04-01T08:09:32;98883.38;;;11.09;100.00
16690;BME280;8458;52.220;9.884;2023-04-01T08:12:13;98888.97;;;11.18;100.00
16690;BME280;8458;52.220;9.884;2023-04-01T08:14:52;98889.88;;;11.27;100.00
16690;BME280;8458;52.220;9.884;2023-04-01T08:17:28;98884.94;;;11.24;100.00
16690;BME280;8458;52.220;9.884;2023-04-01T08:20:08;98893.19;;;11.29;100.00
16690;BME280;8458;52.220;9.884;2023-04-01T08:22:41;98890.72;;;11.28;100.00
16690;BME280;8458;52.220;9.884;2023-04-01T08:25:14;98895.25;;;11.24;100.00
16690;BME280;8458;52.220;9.884;2023-04-01T08:27:46;98891.03;;;11.26;100.00
16690;BME280;8458;52.220;9.884;2023-04-01T08:30:19;98898.09;;;11.33;100.00
16690;BME280;8458;52.220;9.884;2023-04-01T08:32:50;98903.53;;;11.38;100.00
16690;BME280;8458;52.220;9.884;2023-04-01T08:35:26;98901.06;;;11.36;100.00
16690;BME280;8458;52.220;9.884;2023-04-01T08:37:55;98903.38;;;11.43;100.00
16690;BME280;8458;52.220;9.884;2023-04-01T08:40:41;98906.69;;;11.45;99.91
16690;BME280;8458;52.220;9.884;2023-04-01T08:43:16;98909.56;;;11.40;97.44
16690;BME280;8458;52.220;9.884;2023-04-01T08:46:13;98903.03;;;11.36;98.58
16690;BME280;8458;52.220;9.884;2023-04-01T08:49:10;98915.75;;;11.37;97.75
16690;BME280;8458;52.220;9.884;2023-04-01T08:52:03;98918.03;;;11.35;98.45
16690;BME280;8458;52.220;9.884;2023-04-01T08:54:45;98922.53;;;11.30;97.17
16690;BME280;8458;52.220;9.884;2023-04-01T08:57:15;98919.66;;;11.36;98.55
16690;BME280;8458;52.220;9.884;2023-04-01T08:59:57;98926.03;;;11.36;97.34
16690;BME280;8458;52.220;9.884;2023-04-01T09:03:13;98915.94;;;11.40;98.21
16690;BME280;8458;52.220;9.884;2023-04-01T09:06:00;98917.78;;;11.45;98.13
16690;BME280;8458;52.220;9.884;2023-04-01T09:08:42;98920.63;;;11.54;98.56
16690;BME280;8458;52.220;9.884;2023-04-01T09:11:26;98924.09;;;11.59;96.96
16690;BME280;8458;52.220;9.884;2023-04-01T09:14:06;98927.00;;;11.54;96.20
16690;BME280;8458;52.220;9.884;2023-04-01T09:17:04;98920.31;;;11.55;95.36
16690;BME280;8458;52.220;9.884;2023-04-01T09:19:50;98924.28;;;11.63;96.27
16690;BME280;8458;52.220;9.884;2023-04-01T09:22:26;98925.50;;;11.71;95.83
16690;BME280;8458;52.220;9.884;2023-04-01T09:25:14;98931.25;;;11.74;95.47
16690;BME280;8458;52.220;9.884;2023-04-01T09:27:45;98932.56;;;11.77;95.24
16690;BME280;8458;52.220;9.884;2023-04-01T09:30:31;98931.44;;;11.78;94.43
16690;BME280;8458;52.220;9.884;2023-04-01T09:33:34;98926.91;;;11.82;95.57
16690;BME280;8458;52.220;9.884;2023-04-01T09:36:12;98937.56;;;11.89;91.53
16690;BME280;8458;52.220;9.884;2023-04-01T09:38:55;98943.19;;;11.97;92.38
16690;BME280;8458;52.220;9.884;2023-04-01T09:41:29;98943.06;;;12.02;92.34
16690;BME280;8458;52.220;9.884;2023-04-01T09:44:01;98945.72;;;12.08;89.58
16690;BME280;8458;52.220;9.884;2023-04-01T09:46:37;98953.22;;;12.07;90.28
16690;BME280;8458;52.220;9.884;2023-04-01T09:49:26;98957.94;;;12.07;90.49
16690;BME280;8458;52.220;9.884;2023-04-01T09:52:09;98962.00;;;12.00;91.43
16690;BME280;8458;52.220;9.884;2023-04-01T09:54:54;98950.06;;;12.00;91.44
16690;BME280;8458;52.220;9.884;2023-04-01T09:58:06;98961.56;;;12.07;92.03
16690;BME280;8458;52.220;9.884;2023-04-01T10:00:55;98964.34;;;12.07;94.16
16690;BME280;8458;52.220;9.884;2023-04-01T10:06:59;98982.78;;;12.03;93.24
16690;BME280;8458;52.220;9.884;2023-04-01T10:09:53;98979.19;;;12.02;93.59
16690;BME280;8458;52.220;9.884;2023-04-01T10:13:06;98979.03;;;12.08;92.79
16690;BME280;8458;52.220;9.884;2023-04-01T10:16:14;98986.88;;;12.06;93.54
16690;BME280;8458;52.220;9.884;2023-04-01T10:18:56;98987.88;;;12.10;93.25
16690;BME280;8458;52.220;9.884;2023-04-01T10:21:57;98984.16;;;12.14;94.26
16690;BME280;8458;52.220;9.884;2023-04-01T10:24:50;98992.38;;;12.19;93.74
16690;BME280;8458;52.220;9.884;2023-04-01T10:27:58;98987.00;;;12.23;92.75
16690;BME280;8458;52.220;9.884;2023-04-01T10:30:49;98991.53;;;12.19;93.61
16690;BME280;8458;52.220;9.884;2023-04-01T10:36:36;98987.75;;;12.15;95.53
16690;BME280;8458;52.220;9.884;2023-04-01T10:39:33;98995.47;;;12.18;96.56
16690;BME280;8458;52.220;9.884;2023-04-01T10:42:28;98988.00;;;12.27;96.79
16690;BME280;8458;52.220;9.884;2023-04-01T10:45:30;98995.56;;;12.35;97.16
16690;BME280;8458;52.220;9.884;2023-04-01T10:51:16;98996.94;;;12.47;96.88
16690;BME280;8458;52.220;9.884;2023-04-01T10:54:16;98993.47;;;12.41;98.64
16690;BME280;8458;52.220;9.884;2023-04-01T10:56:58;98999.53;;;12.43;97.82
16690;BME280;8458;52.220;9.884;2023-04-01T10:59:57;98994.53;;;12.54;97.06
16690;BME280;8458;52.220;9.884;2023-04-01T11:02:56;98996.84;;;12.61;96.77
16690;BME280;8458;52.220;9.884;2023-04-01T11:12:00;99005.88;;;12.66;95.33
16690;BME280;8458;52.220;9.884;2023-04-01T11:14:52;98995.28;;;12.77;95.92
16690;BME280;8458;52.220;9.884;2023-04-01T11:18:02;99019.38;;;12.82;95.06
16690;BME280;8458;52.220;9.884;2023-04-01T11:20:50;99011.81;;;12.73;95.60
16690;BME280;8458;52.220;9.884;2023-04-01T11:23:32;99010.00;;;12.69;94.73
16690;BME280;8458;52.220;9.884;2023-04-01T11:26:09;99012.94;;;12.72;95.89
16690;BME280;8458;52.220;9.884;2023-04-01T11:29:04;99020.38;;;12.86;97.12
16690;BME280;8458;52.220;9.884;2023-04-01T11:31:39;99014.16;;;12.89;96.19
16690;BME280;8458;52.220;9.884;2023-04-01T11:34:31;99025.31;;;12.98;96.62
16690;BME280;8458;52.220;9.884;2023-04-01T11:37:10;99027.13;;;12.94;97.08
16690;BME280;8458;52.220;9.884;2023-04-01T11:39:59;99019.44;;;12.99;95.66
16690;BME280;8458;52.220;9.884;2023-04-01T11:42:33;99024.34;;;13.02;96.96
16690;BME280;8458;52.220;9.884;2023-04-01T11:45:13;99027.00;;;13.07;97.41
16690;BME280;8458;52.220;9.884;2023-04-01T11:47:57;99025.00;;;12.99;94.98
16690;BME280;8458;52.220;9.884;2023-04-01T11:50:31;99030.91;;;13.06;94.43
16690;BME280;8458;52.220;9.884;2023-04-01T11:53:13;99037.81;;;13.09;93.46
16690;BME280;8458;52.220;9.884;2023-04-01T11:55:50;99034.19;;;13.08;93.75
16690;BME280;8458;52.220;9.884;2023-04-01T11:58:31;99045.69;;;13.16;94.69
16690;BME280;8458;52.220;9.884;2023-04-01T12:01:35;99049.13;;;13.21;94.33
16690;BME280;8458;52.220;9.884;2023-04-01T12:04:30;99047.19;;;13.22;92.91
16690;BME280;8458;52.220;9.884;2023-04-01T12:07:08;99045.53;;;13.21;91.55
16690;BME280;8458;52.220;9.884;2023-04-01T12:09:47;99053.22;;;13.24;91.75
16690;BME280;8458;52.220;9.884;2023-04-01T12:12:24;99051.94;;;13.30;92.64
16690;BME280;8458;52.220;9.884;2023-04-01T12:15:02;99050.38;;;13.38;92.46
16690;BME280;8458;52.220;9.884;2023-04-01T12:17:39;99063.09;;;13.30;91.69
16690;BME280;8458;52.220;9.884;2023-04-01T12:20:22;99060.78;;;13.32;91.23
16690;BME280;8458;52.220;9.884;2023-04-01T12:22:59;99063.47;;;13.37;90.31
16690;BME280;8458;52.220;9.884;2023-04-01T12:25:57;99057.59;;;13.39;90.77
16690;BME280;8458;52.220;9.884;2023-04-01T12:28:40;99063.16;;;13.48;91.44
16690;BME280;8458;52.220;9.884;2023-04-01T12:31:25;99065.63;;;13.49;91.68
16690;BME280;8458;52.220;9.884;2023-04-01T12:37:13;99068.06;;;13.51;89.37
16690;BME280;8458;52.220;9.884;2023-04-01T12:40:06;99080.50;;;13.44;88.69
16690;BME280;8458;52.220;9.884;2023-04-01T12:43:01;99079.78;;;13.30;88.96
16690;BME280;8458;52.220;9.884;2023-04-01T12:45:30;99081.56;;;13.26;89.25
16690;BME280;8458;52.220;9.884;2023-04-01T12:48:22;99084.34;;;13.26;89.69
16690;BME280;8458;52.220;9.884;2023-04-01T12:51:19;99085.63;;;13.20;89.43
16690;BME280;8458;52.220;9.884;2023-04-01T12:56:44;99092.03;;;13.20;90.84
16690;BME280;8458;52.220;9.884;2023-04-01T13:02:30;99101.34;;;13.16;96.32
16690;BME280;8458;52.220;9.884;2023-04-01T13:05:24;99097.69;;;13.06;95.88
16690;BME280;8458;52.220;9.884;2023-04-01T13:08:01;99101.25;;;12.98;94.42
16690;BME280;8458;52.220;9.884;2023-04-01T13:10:41;99120.84;;;12.93;94.01
16690;BME280;8458;52.220;9.884;2023-04-01T13:13:27;99115.81;;;12.95;92.83
16690;BME280;8458;52.220;9.884;2023-04-01T13:15:58;99113.03;;;12.95;93.68
16690;BME280;8458;52.220;9.884;2023-04-01T13:18:38;99119.09;;;12.97;93.94
16690;BME280;8458;52.220;9.884;2023-04-01T13:21:15;99122.34;;;12.99;94.51
16690;BME280;8458;52.220;9.884;2023-04-01T13:23:56;99124.50;;;13.02;95.05
16690;BME280;8458;52.220;9.884;2023-04-01T13:26:33;99123.53;;;12.98;91.67
16690;BME280;8458;52.220;9.884;2023-04-01T13:29:04;99124.81;;;13.01;93.84
16690;BME280;8458;52.220;9.884;2023-04-01T13:31:41;99131.34;;;12.96;92.53
16690;BME280;8458;52.220;9.884;2023-04-01T13:34:27;99128.06;;;12.94;93.58
16690;BME280;8458;52.220;9.884;2023-04-01T13:37:08;99131.81;;;12.89;95.04
16690;BME280;8458;52.220;9.884;2023-04-01T13:39:46;99137.19;;;12.86;95.62
16690;BME280;8458;52.220;9.884;2023-04-01T13:42:23;99140.00;;;12.95;95.49
16690;BME280;8458;52.220;9.884;2023-04-01T13:44:56;99143.41;;;12.91;96.74
16690;BME280;8458;52.220;9.884;2023-04-01T13:47:50;99146.53;;;12.90;98.39
16690;BME280;8458;52.220;9.884;2023-04-01T13:50:33;99146.28;;;12.78;98.93
16690;BME280;8458;52.220;9.884;2023-04-01T13:53:23;99149.97;;;12.64;96.01
16690;BME280;8458;52.220;9.884;2023-04-01T13:59:07;99158.78;;;12.44;97.21
16690;BME280;8458;52.220;9.884;2023-04-01T14:01:41;99158.72;;;12.35;94.27
16690;BME280;8458;52.220;9.884;2023-04-01T14:04:38;99160.47;;;12.31;95.54
16690;BME280;8458;52.220;9.884;2023-04-01T14:07:20;99163.88;;;12.28;98.47
16690;BME280;8458;52.220;9.884;2023-04-01T14:12:47;99170.38;;;12.23;100.00
16690;BME280;8458;52.220;9.884;2023-04-01T14:15:29;99176.56;;;12.20;100.00
16690;BME280;8458;52.220;9.884;2023-04-01T14:18:13;99180.47;;;12.19;100.00
16690;BME280;8458;52.220;9.884;2023-04-01T14:20:46;99184.19;;;12.14;100.00
16690;BME280;8458;52.220;9.884;2023-04-01T14:23:36;99188.72;;;12.10;100.00
16690;BME280;8458;52.220;9.884;2023-04-01T14:26:22;99195.22;;;12.06;100.00